Time;durP1;ratioP1;P1;durP2;ratioP2;P2;SDS_P1;SDS_P2;PMS_P1;PMS_P2;Temp;Humidity;BMP_temperature;BMP_pressure;BME280_temperature;BME280_humidity;BME280_pressure;Samples;Min_cycle;Max_cycle;Signal;HPM_P1;HPM_P2
2021/03/04 00:01:47;;;;;;;60.53;34.13;;;;;;;;;;5055542;28;20270;-76
2021/03/04 00:04:13;;;;;;;63.00;36.03;;;;;;;;;;5072209;28;20227;-76
2021/03/04 00:06:38;;;;;;;68.00;36.53;;;;;;;;;;5071409;28;20272;-76
2021/03/04 00:09:05;;;;;;;63.57;35.63;;;;;;;;;;5072309;28;20178;-76
2021/03/04 00:11:31;;;;;;;66.07;35.57;;;;;;;;;;5073222;28;20259;-76
2021/03/04 00:13:57;;;;;;;67.20;36.17;;;;;;;;;;5071721;28;20268;-76
2021/03/04 00:16:23;;;;;;;63.10;34.67;;;;;;;;;;5073000;28;20178;-76
2021/03/04 00:18:49;;;;;;;67.93;36.10;;;;;;;;;;5072069;28;20188;-76
2021/03/04 00:21:15;;;;;;;62.63;34.50;;;;;;;;;;5054834;28;20209;-76
2021/03/04 00:23:41;;;;;;;65.27;35.43;;;;;;;;;;5072016;28;20181;-76
2021/03/04 00:26:07;;;;;;;66.03;35.57;;;;;;;;;;5071831;28;20209;-76
2021/03/04 00:28:33;;;;;;;67.03;36.43;;;;;;;;;;5054569;28;20202;-76
2021/03/04 00:30:59;;;;;;;69.03;35.90;;;;;;;;;;5072869;28;20173;-76
2021/03/04 00:33:25;;;;;;;69.47;35.93;;;;;;;;;;5071790;28;20661;-76
2021/03/04 00:35:51;;;;;;;68.40;35.60;;;;;;;;;;5072806;28;20695;-76
2021/03/04 00:38:17;;;;;;;66.07;35.70;;;;;;;;;;5071525;28;20190;-76
2021/03/04 00:40:43;;;;;;;59.30;34.37;;;;;;;;;;5071132;28;20271;-75
2021/03/04 00:43:08;;;;;;;64.63;34.57;;;;;;;;;;5054739;28;20181;-76
2021/03/04 00:45:34;;;;;;;69.27;36.23;;;;;;;;;;5071414;28;20208;-76
2021/03/04 00:48:00;;;;;;;60.93;33.67;;;;;;;;;;5054611;28;20206;-76
2021/03/04 00:50:26;;;;;;;72.27;35.40;;;;;;;;;;5070906;28;20211;-76
2021/03/04 00:52:52;;;;;;;68.90;34.90;;;;;;;;;;5072312;28;20184;-76
2021/03/04 00:55:18;;;;;;;71.80;35.53;;;;;;;;;;5072572;28;20243;-76
2021/03/04 00:57:44;;;;;;;70.77;36.50;;;;;;;;;;5072190;28;20196;-76
2021/03/04 01:00:11;;;;;;;71.20;35.90;;;;;;;;;;5070867;28;20221;-76
2021/03/04 01:02:36;;;;;;;75.20;37.17;;;;;;;;;;5070823;28;20184;-76
2021/03/04 01:05:04;;;;;;;69.07;37.00;;;;;;;;;;5071014;28;20208;-76
2021/03/04 01:07:30;;;;;;;71.63;37.00;;;;;;;;;;5054590;28;20243;-76
2021/03/04 01:09:56;;;;;;;77.87;37.50;;;;;;;;;;5071955;28;20202;-76
2021/03/04 01:12:22;;;;;;;79.87;37.40;;;;;;;;;;5053977;28;20205;-76
2021/03/04 01:14:48;;;;;;;76.73;37.43;;;;;;;;;;5072211;28;20179;-76
2021/03/04 01:17:14;;;;;;;80.03;38.60;;;;;;;;;;5070574;28;20637;-76
2021/03/04 01:19:40;;;;;;;77.90;38.17;;;;;;;;;;5070119;28;20185;-76
2021/03/04 01:22:06;;;;;;;86.47;40.50;;;;;;;;;;5070609;28;20183;-75
2021/03/04 01:24:32;;;;;;;94.80;42.10;;;;;;;;;;5054098;28;20202;-76
2021/03/04 01:26:58;;;;;;;89.90;42.07;;;;;;;;;;5070751;28;20626;-76
2021/03/04 01:29:24;;;;;;;91.90;41.07;;;;;;;;;;5054307;28;20270;-75
2021/03/04 01:31:50;;;;;;;102.60;44.80;;;;;;;;;;5070691;28;20251;-75
2021/03/04 01:34:16;;;;;;;100.23;44.27;;;;;;;;;;5054078;28;20208;-75
2021/03/04 01:36:43;;;;;;;106.30;45.63;;;;;;;;;;5070723;28;20656;-75
2021/03/04 01:39:09;;;;;;;105.07;44.60;;;;;;;;;;5071031;28;20175;-76
2021/03/04 01:41:35;;;;;;;118.23;48.03;;;;;;;;;;5072714;28;20170;-78
2021/03/04 01:44:01;;;;;;;118.30;48.53;;;;;;;;;;5072394;28;20180;-77
2021/03/04 01:46:27;;;;;;;117.90;48.20;;;;;;;;;;5056900;28;20261;-77
2021/03/04 01:48:53;;;;;;;110.57;46.43;;;;;;;;;;5057399;28;20181;-77
2021/03/04 01:51:19;;;;;;;111.83;47.30;;;;;;;;;;5056742;28;20179;-77
2021/03/04 01:53:45;;;;;;;104.13;44.27;;;;;;;;;;5073920;28;20173;-77
2021/03/04 01:56:11;;;;;;;110.17;45.60;;;;;;;;;;5057405;28;20664;-77
2021/03/04 01:58:37;;;;;;;119.63;48.47;;;;;;;;;;5057643;28;20295;-77
2021/03/04 02:01:03;;;;;;;105.97;45.17;;;;;;;;;;5073247;28;20185;-78
2021/03/04 02:03:29;;;;;;;109.40;47.37;;;;;;;;;;5057031;28;20181;-77
2021/03/04 02:05:55;;;;;;;110.97;47.83;;;;;;;;;;5074156;28;20218;-77
2021/03/04 02:08:40;;;;;;;112.17;46.33;;;;;;;;;;5073361;28;20224;-77
2021/03/04 02:11:07;;;;;;;120.60;46.57;;;;;;;;;;5056560;28;20184;-77
2021/03/04 02:13:52;;;;;;;107.13;45.73;;;;;;;;;;5074868;28;20228;-77
2021/03/04 02:16:19;;;;;;;109.30;45.70;;;;;;;;;;5076006;28;20555;-77
2021/03/04 02:18:52;;;;;;;95.30;41.93;;;;;;;;;;5057441;28;20590;-78
2021/03/04 02:21:37;;;;;;;81.57;38.13;;;;;;;;;;5058151;28;20823;-77
2021/03/04 02:24:08;;;;;;;82.03;38.03;;;;;;;;;;5075504;28;20589;-77
2021/03/04 02:26:44;;;;;;;94.87;40.10;;;;;;;;;;5075014;28;20300;-77
2021/03/04 02:29:14;;;;;;;96.13;38.93;;;;;;;;;;5076210;28;20173;-77
2021/03/04 02:31:40;;;;;;;99.17;39.60;;;;;;;;;;5062145;28;20203;-77
2021/03/04 02:34:06;;;;;;;100.23;40.83;;;;;;;;;;5077880;28;20187;-77
2021/03/04 02:36:33;;;;;;;103.00;41.67;;;;;;;;;;5077917;28;20186;-77
2021/03/04 02:38:59;;;;;;;110.87;43.73;;;;;;;;;;5077828;28;20213;-77
2021/03/04 02:41:25;;;;;;;107.07;40.97;;;;;;;;;;5060812;28;20565;-77
2021/03/04 02:43:51;;;;;;;102.73;41.30;;;;;;;;;;5077854;28;20184;-77
2021/03/04 02:46:17;;;;;;;94.97;39.70;;;;;;;;;;5078367;28;20609;-77
2021/03/04 02:48:43;;;;;;;102.37;40.20;;;;;;;;;;5060580;28;20193;-77
2021/03/04 02:51:09;;;;;;;95.93;38.23;;;;;;;;;;5076809;28;20174;-77
2021/03/04 02:53:35;;;;;;;86.27;36.23;;;;;;;;;;5077652;28;20222;-77
2021/03/04 02:56:01;;;;;;;88.87;36.57;;;;;;;;;;5078135;28;20542;-77
2021/03/04 02:58:27;;;;;;;90.10;36.93;;;;;;;;;;5060840;28;20204;-77
2021/03/04 03:00:53;;;;;;;94.60;37.57;;;;;;;;;;5077645;28;20180;-77
2021/03/04 03:03:20;;;;;;;103.43;39.67;;;;;;;;;;5078196;28;20193;-77
2021/03/04 03:05:46;;;;;;;108.40;38.80;;;;;;;;;;5077594;28;20201;-77
2021/03/04 03:08:15;;;;;;;102.97;38.93;;;;;;;;;;5061112;28;20214;-77
2021/03/04 03:10:43;;;;;;;97.27;37.37;;;;;;;;;;5078041;28;20253;-77
2021/03/04 03:13:09;;;;;;;89.27;36.73;;;;;;;;;;5078488;28;20181;-77
2021/03/04 03:15:35;;;;;;;95.57;36.87;;;;;;;;;;5061795;28;20247;-77
2021/03/04 03:18:01;;;;;;;90.97;35.90;;;;;;;;;;5078546;28;20220;-77
2021/03/04 03:20:27;;;;;;;81.70;35.57;;;;;;;;;;5061621;28;20183;-78
2021/03/04 03:22:53;;;;;;;89.07;35.13;;;;;;;;;;5078728;28;20321;-77
2021/03/04 03:25:19;;;;;;;91.50;34.27;;;;;;;;;;5062178;28;20239;-77
2021/03/04 03:27:45;;;;;;;94.37;37.20;;;;;;;;;;5061307;28;20197;-77
2021/03/04 03:30:12;;;;;;;93.53;38.00;;;;;;;;;;5061093;28;20185;-77
2021/03/04 03:32:38;;;;;;;92.03;36.43;;;;;;;;;;5062129;28;20185;-77
2021/03/04 03:35:04;;;;;;;108.67;38.53;;;;;;;;;;5079052;28;20264;-77
2021/03/04 03:37:30;;;;;;;114.07;37.87;;;;;;;;;;5078512;28;20200;-77
2021/03/04 03:39:56;;;;;;;112.93;38.30;;;;;;;;;;5079116;28;20188;-77
2021/03/04 03:42:22;;;;;;;107.70;38.20;;;;;;;;;;5059613;28;20188;-77
2021/03/04 03:44:48;;;;;;;109.50;37.13;;;;;;;;;;5077543;28;20211;-77
2021/03/04 03:47:14;;;;;;;110.17;38.20;;;;;;;;;;5060655;28;20200;-77
2021/03/04 03:49:40;;;;;;;109.10;39.20;;;;;;;;;;5078279;28;20191;-78
2021/03/04 03:52:06;;;;;;;114.97;40.30;;;;;;;;;;5078248;28;20274;-77
2021/03/04 03:54:32;;;;;;;116.10;39.57;;;;;;;;;;5062362;28;20189;-78
2021/03/04 03:56:58;;;;;;;111.93;40.07;;;;;;;;;;5062441;28;20218;-77
2021/03/04 03:59:24;;;;;;;124.97;41.13;;;;;;;;;;5079453;28;20258;-78
2021/03/04 04:01:50;;;;;;;131.20;41.43;;;;;;;;;;5079324;28;20209;-77
2021/03/04 04:04:16;;;;;;;130.43;40.93;;;;;;;;;;5079906;28;20177;-77
2021/03/04 04:06:42;;;;;;;121.90;40.30;;;;;;;;;;5080624;28;20174;-77
2021/03/04 04:09:08;;;;;;;129.97;42.10;;;;;;;;;;5079536;28;20170;-77
2021/03/04 04:11:34;;;;;;;128.23;39.80;;;;;;;;;;5063980;28;20189;-77
2021/03/04 04:14:00;;;;;;;115.53;39.57;;;;;;;;;;5078363;28;20169;-78
2021/03/04 04:16:26;;;;;;;123.63;39.47;;;;;;;;;;5056348;28;20174;-78
2021/03/04 04:18:52;;;;;;;120.37;39.93;;;;;;;;;;5073610;28;20164;-77
2021/03/04 04:21:18;;;;;;;117.27;38.03;;;;;;;;;;5076576;28;20177;-78
2021/03/04 04:23:44;;;;;;;119.57;39.43;;;;;;;;;;5092957;28;20174;-78
2021/03/04 04:26:10;;;;;;;121.30;40.07;;;;;;;;;;5075898;28;20263;-78
2021/03/04 04:28:36;;;;;;;119.00;40.63;;;;;;;;;;5092897;28;20204;-78
2021/03/04 04:31:02;;;;;;;112.93;39.57;;;;;;;;;;5076034;28;20179;-78
2021/03/04 04:33:28;;;;;;;114.40;38.13;;;;;;;;;;5092750;28;20638;-78
2021/03/04 04:35:54;;;;;;;115.47;39.40;;;;;;;;;;5092609;28;20183;-78
2021/03/04 04:38:21;;;;;;;115.00;39.13;;;;;;;;;;5092813;28;20202;-77
2021/03/04 04:40:47;;;;;;;120.73;40.20;;;;;;;;;;5093293;28;20775;-78
2021/03/04 04:43:13;;;;;;;132.97;39.80;;;;;;;;;;5093071;28;20190;-78
2021/03/04 04:45:39;;;;;;;123.57;41.47;;;;;;;;;;5092634;28;20199;-78
2021/03/04 04:48:05;;;;;;;124.57;39.80;;;;;;;;;;5075667;28;20665;-78
2021/03/04 04:50:31;;;;;;;141.97;41.80;;;;;;;;;;5092570;28;20172;-78
2021/03/04 04:52:57;;;;;;;153.60;41.17;;;;;;;;;;5093254;28;20202;-77
2021/03/04 04:55:23;;;;;;;172.53;42.97;;;;;;;;;;5093782;28;20194;-78
2021/03/04 04:57:49;;;;;;;167.60;44.80;;;;;;;;;;5092555;28;20206;-77
2021/03/04 05:00:15;;;;;;;167.07;43.17;;;;;;;;;;5092322;28;20555;-78
2021/03/04 05:02:41;;;;;;;150.50;42.30;;;;;;;;;;5075554;28;20185;-78
2021/03/04 05:05:08;;;;;;;149.70;39.47;;;;;;;;;;5094324;28;20203;-78
2021/03/04 05:07:34;;;;;;;154.73;41.73;;;;;;;;;;5091918;28;20203;-77
2021/03/04 05:10:00;;;;;;;130.73;39.23;;;;;;;;;;5075552;28;20184;-79
2021/03/04 05:12:26;;;;;;;120.40;38.70;;;;;;;;;;5092171;28;20187;-78
2021/03/04 05:14:52;;;;;;;118.43;36.30;;;;;;;;;;5092500;28;20684;-77
2021/03/04 05:17:21;;;;;;;104.17;35.37;;;;;;;;;;5075170;28;20318;-78
2021/03/04 05:19:47;;;;;;;103.33;34.40;;;;;;;;;;5075428;28;20184;-77
2021/03/04 05:22:13;;;;;;;93.60;32.63;;;;;;;;;;5091612;28;20190;-78
2021/03/04 05:24:39;;;;;;;85.70;31.00;;;;;;;;;;5091888;28;20220;-78
2021/03/04 05:27:05;;;;;;;99.67;31.97;;;;;;;;;;5092024;28;20200;-79
2021/03/04 05:29:31;;;;;;;127.53;37.23;;;;;;;;;;5093131;28;20208;-78
2021/03/04 05:31:57;;;;;;;108.57;33.90;;;;;;;;;;5091661;28;20180;-77
2021/03/04 05:34:23;;;;;;;95.20;32.40;;;;;;;;;;5092202;28;20686;-77
2021/03/04 05:36:49;;;;;;;89.90;30.97;;;;;;;;;;5074802;28;20193;-78
2021/03/04 05:39:15;;;;;;;85.13;32.10;;;;;;;;;;5074929;28;20183;-78
2021/03/04 05:41:41;;;;;;;89.33;30.97;;;;;;;;;;5091883;28;20222;-77
2021/03/04 05:44:07;;;;;;;88.67;30.73;;;;;;;;;;5091356;28;20663;-78
2021/03/04 05:46:33;;;;;;;89.77;31.27;;;;;;;;;;5074504;28;20216;-78
2021/03/04 05:48:59;;;;;;;81.90;31.67;;;;;;;;;;5074795;28;20183;-77
2021/03/04 05:51:26;;;;;;;85.80;31.13;;;;;;;;;;5091541;28;20176;-78
2021/03/04 05:53:54;;;;;;;93.27;31.90;;;;;;;;;;5073962;28;20188;-77
2021/03/04 05:56:20;;;;;;;94.80;32.83;;;;;;;;;;5063811;28;20178;-78
2021/03/04 05:58:46;;;;;;;105.50;34.63;;;;;;;;;;5069853;28;20747;-79
2021/03/04 06:01:12;;;;;;;102.37;33.97;;;;;;;;;;5057734;28;20579;-78
2021/03/04 06:03:39;;;;;;;125.47;37.27;;;;;;;;;;5070589;28;20172;-79
2021/03/04 06:06:05;;;;;;;116.70;36.17;;;;;;;;;;5066275;28;20201;-79
2021/03/04 06:08:31;;;;;;;124.20;37.47;;;;;;;;;;5056942;28;20208;-76
2021/03/04 06:10:57;;;;;;;121.17;36.80;;;;;;;;;;5075804;28;20183;-76
2021/03/04 06:13:23;;;;;;;125.30;37.50;;;;;;;;;;5074523;28;20529;-76
2021/03/04 06:15:49;;;;;;;128.07;36.93;;;;;;;;;;5074903;28;20212;-77
2021/03/04 06:18:15;;;;;;;130.40;38.93;;;;;;;;;;5057898;28;20226;-76
2021/03/04 06:20:44;;;;;;;123.30;37.90;;;;;;;;;;5074374;28;20230;-76
2021/03/04 06:23:10;;;;;;;143.63;41.00;;;;;;;;;;5073876;28;20191;-76
2021/03/04 06:25:36;;;;;;;125.40;37.90;;;;;;;;;;5052720;28;20689;-79
2021/03/04 06:28:03;;;;;;;125.53;39.03;;;;;;;;;;5050428;28;20199;-79
2021/03/04 06:30:39;;;;;;;125.43;38.93;;;;;;;;;;5055236;28;20174;-79
2021/03/04 06:33:06;;;;;;;119.63;37.93;;;;;;;;;;5054629;28;20177;-79
2021/03/04 06:35:32;;;;;;;129.80;38.93;;;;;;;;;;5059174;28;20180;-78
2021/03/04 06:37:58;;;;;;;132.73;37.57;;;;;;;;;;5096401;28;20279;-79
2021/03/04 06:40:25;;;;;;;128.97;38.17;;;;;;;;;;5075968;28;20195;-78
2021/03/04 06:42:51;;;;;;;127.47;38.00;;;;;;;;;;5078101;28;20176;-79
2021/03/04 06:45:24;;;;;;;132.77;37.70;;;;;;;;;;5095399;28;20245;-82
2021/03/04 06:47:50;;;;;;;133.07;39.17;;;;;;;;;;5077921;28;20198;-81
2021/03/04 06:50:25;;;;;;;120.63;35.80;;;;;;;;;;5081196;28;20646;-80
2021/03/04 06:52:51;;;;;;;128.23;36.00;;;;;;;;;;5082648;28;20163;-80
2021/03/04 06:55:18;;;;;;;127.87;36.70;;;;;;;;;;5077928;28;20173;-81
2021/03/04 06:58:00;;;;;;;117.90;35.70;;;;;;;;;;5092257;28;20278;-80
2021/03/04 07:00:26;;;;;;;115.27;34.40;;;;;;;;;;5074501;28;20185;-81
2021/03/04 07:03:01;;;;;;;106.67;33.93;;;;;;;;;;5090700;28;20190;-80
2021/03/04 07:05:27;;;;;;;111.13;34.23;;;;;;;;;;5057890;28;20270;-80
2021/03/04 07:07:53;;;;;;;104.53;33.47;;;;;;;;;;5065793;28;20594;-80
2021/03/04 07:10:26;;;;;;;104.13;33.70;;;;;;;;;;5055765;28;20180;-79
2021/03/04 07:12:52;;;;;;;97.60;31.40;;;;;;;;;;5070512;28;20229;-80
2021/03/04 07:15:19;;;;;;;96.60;30.27;;;;;;;;;;5053205;28;20683;-80
2021/03/04 07:17:46;;;;;;;87.27;29.23;;;;;;;;;;5068568;28;20220;-81
2021/03/04 07:20:16;;;;;;;91.97;29.87;;;;;;;;;;5070014;28;20185;-79
2021/03/04 07:22:46;;;;;;;87.20;29.43;;;;;;;;;;5062471;28;20273;-79
2021/03/04 07:25:12;;;;;;;84.37;29.33;;;;;;;;;;5071892;28;20231;-78
2021/03/04 07:27:39;;;;;;;93.47;30.00;;;;;;;;;;5074905;28;20196;-78
2021/03/04 07:30:07;;;;;;;97.03;29.23;;;;;;;;;;5074237;28;20180;-78
2021/03/04 07:32:33;;;;;;;100.47;28.53;;;;;;;;;;5074067;28;20664;-78
2021/03/04 07:34:59;;;;;;;96.87;29.83;;;;;;;;;;5073883;28;20173;-78
2021/03/04 07:37:25;;;;;;;97.37;29.90;;;;;;;;;;5057452;28;20204;-78
2021/03/04 07:39:58;;;;;;;104.57;30.23;;;;;;;;;;5039541;28;20200;-78
2021/03/04 07:42:24;;;;;;;98.50;28.37;;;;;;;;;;5054546;28;20248;-78
2021/03/04 07:44:50;;;;;;;89.53;29.67;;;;;;;;;;5054907;28;20198;-77
2021/03/04 07:47:24;;;;;;;98.23;28.53;;;;;;;;;;5037875;28;20595;-78
2021/03/04 07:49:49;;;;;;;91.30;27.50;;;;;;;;;;5066886;28;20548;-78
2021/03/04 07:52:19;;;;;;;101.73;30.23;;;;;;;;;;5054225;28;20181;-78
2021/03/04 07:54:47;;;;;;;96.33;27.80;;;;;;;;;;5036940;28;20193;-79
2021/03/04 07:57:14;;;;;;;91.27;28.00;;;;;;;;;;5061532;28;20687;-78
2021/03/04 08:00:02;;;;;;;95.80;28.30;;;;;;;;;;5058714;28;20180;-78
2021/03/04 08:02:28;;;;;;;89.53;28.07;;;;;;;;;;5075262;28;20570;-78
2021/03/04 08:05:13;;;;;;;99.93;27.57;;;;;;;;;;5074372;28;20701;-79
2021/03/04 08:07:39;;;;;;;90.77;27.30;;;;;;;;;;5076121;28;20202;-78
2021/03/04 08:10:06;;;;;;;85.87;26.00;;;;;;;;;;5075064;28;20264;-77
2021/03/04 08:12:32;;;;;;;80.73;27.03;;;;;;;;;;5074470;28;20184;-78
2021/03/04 08:14:58;;;;;;;89.57;25.43;;;;;;;;;;5073885;28;20187;-78
2021/03/04 08:17:34;;;;;;;83.07;26.23;;;;;;;;;;5071923;28;20228;-78
2021/03/04 08:20:05;;;;;;;79.70;24.60;;;;;;;;;;5073924;28;20175;-78
2021/03/04 08:22:31;;;;;;;80.27;25.97;;;;;;;;;;5057404;28;20187;-78
2021/03/04 08:25:01;;;;;;;81.13;25.47;;;;;;;;;;5057686;28;20208;-79
2021/03/04 08:27:27;;;;;;;83.27;27.47;;;;;;;;;;5037337;28;20197;-78
2021/03/04 08:29:53;;;;;;;81.77;25.67;;;;;;;;;;5035751;28;20184;-77
2021/03/04 08:32:19;;;;;;;87.30;27.30;;;;;;;;;;5051319;28;20178;-75
2021/03/04 08:34:46;;;;;;;89.20;27.00;;;;;;;;;;5036677;28;20263;-76
2021/03/04 08:37:21;;;;;;;94.93;28.10;;;;;;;;;;5037271;28;20206;-80
2021/03/04 08:39:47;;;;;;;91.23;27.87;;;;;;;;;;5055030;28;20177;-78
2021/03/04 08:42:13;;;;;;;76.63;23.67;;;;;;;;;;5052042;28;20315;-77
2021/03/04 08:44:46;;;;;;;84.43;25.60;;;;;;;;;;5056108;28;20183;-80
2021/03/04 08:47:14;;;;;;;74.40;25.40;;;;;;;;;;5040238;28;20573;-80
2021/03/04 08:49:40;;;;;;;80.63;24.40;;;;;;;;;;5040890;28;20205;-82
2021/03/04 08:52:07;;;;;;;74.83;25.00;;;;;;;;;;5055769;28;20170;-80
2021/03/04 08:54:32;;;;;;;76.23;24.70;;;;;;;;;;5039239;28;20184;-80
2021/03/04 08:57:03;;;;;;;79.83;24.73;;;;;;;;;;5038606;28;20234;-80
2021/03/04 08:59:29;;;;;;;74.73;24.10;;;;;;;;;;5058225;28;20419;-81
2021/03/04 09:01:55;;;;;;;75.03;24.30;;;;;;;;;;5061047;28;20177;-78
2021/03/04 09:04:25;;;;;;;77.47;24.57;;;;;;;;;;5060441;28;20645;-79
2021/03/04 09:06:51;;;;;;;75.40;23.53;;;;;;;;;;5060255;28;20219;-78
2021/03/04 09:09:23;;;;;;;70.60;22.60;;;;;;;;;;5074003;28;20260;-81
2021/03/04 09:11:49;;;;;;;80.77;23.60;;;;;;;;;;5074186;28;20231;-84
2021/03/04 09:14:15;;;;;;;77.60;22.43;;;;;;;;;;5056901;28;20181;-80
2021/03/04 09:16:42;;;;;;;80.00;24.20;;;;;;;;;;5055107;28;20197;-81
2021/03/04 09:19:08;;;;;;;72.37;22.60;;;;;;;;;;5072636;28;20213;-80
2021/03/04 09:21:34;;;;;;;64.67;22.30;;;;;;;;;;5072372;28;20280;-81
2021/03/04 09:24:00;;;;;;;71.83;24.40;;;;;;;;;;5054951;28;20536;-77
2021/03/04 09:26:32;;;;;;;77.00;24.03;;;;;;;;;;5054919;28;20307;-81
2021/03/04 09:28:58;;;;;;;60.40;21.47;;;;;;;;;;5055321;28;20177;-83
2021/03/04 09:31:25;;;;;;;63.27;20.97;;;;;;;;;;5055220;28;20494;-82
2021/03/04 09:33:58;;;;;;;56.73;20.90;;;;;;;;;;5055101;28;20205;-79
2021/03/04 09:36:24;;;;;;;65.80;21.50;;;;;;;;;;5070605;28;20184;-79
2021/03/04 09:38:54;;;;;;;63.37;21.33;;;;;;;;;;5072269;28;20261;-81
2021/03/04 09:41:20;;;;;;;60.37;22.07;;;;;;;;;;5055680;28;20275;-77
2021/03/04 09:43:52;;;;;;;58.77;21.60;;;;;;;;;;5055163;28;20180;-77
2021/03/04 09:46:31;;;;;;;62.00;20.07;;;;;;;;;;5054818;28;20587;-77
2021/03/04 09:49:07;;;;;;;58.27;20.70;;;;;;;;;;5073314;28;20180;-77
2021/03/04 09:51:33;;;;;;;53.97;18.83;;;;;;;;;;5054602;28;20184;-77
2021/03/04 09:53:59;;;;;;;55.13;20.00;;;;;;;;;;5055477;28;20181;-77
2021/03/04 09:56:25;;;;;;;57.63;20.20;;;;;;;;;;5072573;28;20174;-79
2021/03/04 09:58:51;;;;;;;50.97;18.77;;;;;;;;;;5075647;28;20696;-80
2021/03/04 10:01:26;;;;;;;53.03;19.80;;;;;;;;;;5077727;28;20209;-81
2021/03/04 10:03:58;;;;;;;57.37;20.17;;;;;;;;;;5086254;28;20177;-81
2021/03/04 10:06:24;;;;;;;57.97;20.23;;;;;;;;;;5051566;28;20219;-80
2021/03/04 10:08:54;;;;;;;51.67;19.13;;;;;;;;;;5056694;28;20296;-81
2021/03/04 10:11:23;;;;;;;60.77;20.60;;;;;;;;;;5056924;28;20237;-79
2021/03/04 10:13:49;;;;;;;63.80;21.90;;;;;;;;;;5057161;28;20179;-79
2021/03/04 10:16:15;;;;;;;60.07;20.73;;;;;;;;;;5056311;28;20598;-77
2021/03/04 10:18:43;;;;;;;59.17;20.47;;;;;;;;;;5070406;28;20259;-79
2021/03/04 10:21:09;;;;;;;65.33;21.10;;;;;;;;;;5072333;28;20176;-77
2021/03/04 10:23:35;;;;;;;54.83;20.00;;;;;;;;;;5071678;28;20191;-79
2021/03/04 10:26:01;;;;;;;61.63;21.10;;;;;;;;;;5072729;28;20214;-79
2021/03/04 10:28:27;;;;;;;56.20;18.97;;;;;;;;;;5040055;28;20201;-79
2021/03/04 10:30:53;;;;;;;60.63;20.43;;;;;;;;;;5035207;28;20185;-79
2021/03/04 10:33:19;;;;;;;54.57;20.33;;;;;;;;;;5033890;28;20553;-80
2021/03/04 10:35:45;;;;;;;50.47;19.10;;;;;;;;;;5034150;28;20185;-77
2021/03/04 10:38:11;;;;;;;48.10;17.83;;;;;;;;;;5034267;28;20642;-78
2021/03/04 10:40:37;;;;;;;42.17;16.73;;;;;;;;;;5034629;28;20273;-78
2021/03/04 10:43:03;;;;;;;44.23;17.63;;;;;;;;;;5034061;28;20190;-77
2021/03/04 10:45:29;;;;;;;34.97;14.50;;;;;;;;;;5065174;28;20279;-77
2021/03/04 10:47:55;;;;;;;34.20;14.23;;;;;;;;;;5070377;28;20204;-77
2021/03/04 10:50:21;;;;;;;34.57;14.23;;;;;;;;;;5054273;28;20662;-76
2021/03/04 10:52:47;;;;;;;29.53;13.03;;;;;;;;;;5074832;28;20257;-77
2021/03/04 10:55:15;;;;;;;36.10;14.30;;;;;;;;;;5073962;28;20226;-77
2021/03/04 10:57:41;;;;;;;39.97;15.57;;;;;;;;;;5073912;28;20203;-77
2021/03/04 11:00:08;;;;;;;40.53;16.00;;;;;;;;;;5057413;28;20190;-79
2021/03/04 11:02:34;;;;;;;43.27;16.13;;;;;;;;;;5057812;28;20215;-79
2021/03/04 11:05:00;;;;;;;37.20;15.40;;;;;;;;;;5057503;28;20680;-79
2021/03/04 11:07:26;;;;;;;40.37;16.10;;;;;;;;;;5065882;28;20218;-79
2021/03/04 11:09:52;;;;;;;34.50;14.53;;;;;;;;;;5074458;28;20173;-78
2021/03/04 11:12:19;;;;;;;38.53;15.47;;;;;;;;;;5056980;28;20231;-79
2021/03/04 11:14:45;;;;;;;39.97;15.70;;;;;;;;;;5074278;28;20180;-79
2021/03/04 11:17:11;;;;;;;38.27;15.90;;;;;;;;;;5073686;28;20207;-77
2021/03/04 11:19:37;;;;;;;42.70;16.87;;;;;;;;;;5075094;28;20176;-81
2021/03/04 11:22:03;;;;;;;50.27;17.10;;;;;;;;;;5062267;28;20251;-82
2021/03/04 11:24:29;;;;;;;41.60;17.33;;;;;;;;;;5096319;23;20224;-72
2021/03/04 11:26:55;;;;;;;45.37;17.10;;;;;;;;;;5063655;28;20268;-80
2021/03/04 11:29:21;;;;;;;43.80;18.13;;;;;;;;;;5054847;28;20245;-81
2021/03/04 11:31:47;;;;;;;46.03;15.87;;;;;;;;;;5060617;28;20564;-84
2021/03/04 11:34:13;;;;;;;50.83;17.23;;;;;;;;;;5050434;28;20207;-78
2021/03/04 11:36:39;;;;;;;39.80;16.20;;;;;;;;;;5028250;28;20546;-77
2021/03/04 11:39:05;;;;;;;40.40;16.27;;;;;;;;;;5054409;28;20211;-77
2021/03/04 11:41:32;;;;;;;38.20;15.13;;;;;;;;;;5053066;28;20169;-78
2021/03/04 11:43:58;;;;;;;37.33;14.90;;;;;;;;;;5059352;28;20175;-78
2021/03/04 11:46:24;;;;;;;36.83;14.40;;;;;;;;;;5053283;28;20673;-78
2021/03/04 11:48:50;;;;;;;32.93;13.57;;;;;;;;;;5053079;28;20228;-79
2021/03/04 11:51:16;;;;;;;34.70;14.60;;;;;;;;;;5053018;28;20180;-76
2021/03/04 11:53:42;;;;;;;30.87;14.10;;;;;;;;;;5052602;28;20186;-76
2021/03/04 11:56:08;;;;;;;35.33;13.53;;;;;;;;;;5052540;28;20579;-75
2021/03/04 11:58:34;;;;;;;30.70;13.07;;;;;;;;;;5051017;28;20187;-77
2021/03/04 12:01:00;;;;;;;26.17;12.00;;;;;;;;;;5049392;28;20270;-73
2021/03/04 12:03:26;;;;;;;27.13;12.40;;;;;;;;;;5029460;28;20222;-76
2021/03/04 12:05:52;;;;;;;25.50;12.50;;;;;;;;;;5032620;28;20225;-76
2021/03/04 12:08:19;;;;;;;29.00;12.93;;;;;;;;;;5046865;28;20557;-78
2021/03/04 12:10:45;;;;;;;28.57;12.03;;;;;;;;;;5052983;28;20181;-79
2021/03/04 12:13:11;;;;;;;23.87;11.40;;;;;;;;;;5034070;28;20292;-78
2021/03/04 12:15:39;;;;;;;24.13;11.40;;;;;;;;;;5044240;28;20297;-80
2021/03/04 12:18:05;;;;;;;23.40;10.80;;;;;;;;;;5036472;28;20189;-77
2021/03/04 12:20:31;;;;;;;24.27;10.60;;;;;;;;;;5044114;28;20186;-78
2021/03/04 12:22:58;;;;;;;23.13;10.40;;;;;;;;;;5035329;28;20186;-78
2021/03/04 12:25:24;;;;;;;25.13;9.93;;;;;;;;;;5048746;28;20295;-80
2021/03/04 12:27:50;;;;;;;22.23;9.70;;;;;;;;;;5047923;28;20263;-81
2021/03/04 12:30:16;;;;;;;22.60;9.57;;;;;;;;;;5035810;28;20218;-79
2021/03/04 12:32:43;;;;;;;22.17;10.10;;;;;;;;;;5035518;28;20666;-78
2021/03/04 12:35:09;;;;;;;22.90;10.47;;;;;;;;;;5052719;28;20205;-81
2021/03/04 12:37:35;;;;;;;20.40;9.50;;;;;;;;;;5034105;28;20194;-78
2021/03/04 12:40:01;;;;;;;19.93;9.57;;;;;;;;;;5038208;28;20195;-79
2021/03/04 12:42:28;;;;;;;20.13;9.17;;;;;;;;;;5030602;28;20204;-79
2021/03/04 12:44:53;;;;;;;18.00;8.63;;;;;;;;;;5029774;28;20201;-77
2021/03/04 12:47:19;;;;;;;21.63;9.73;;;;;;;;;;5031636;28;20600;-78
2021/03/04 12:49:45;;;;;;;20.57;9.97;;;;;;;;;;5031349;28;20205;-79
2021/03/04 12:52:11;;;;;;;20.70;9.57;;;;;;;;;;5031213;28;20177;-79
2021/03/04 12:54:37;;;;;;;18.07;8.60;;;;;;;;;;5032655;28;20202;-80
2021/03/04 12:57:04;;;;;;;21.60;9.60;;;;;;;;;;5031340;28;20561;-78
2021/03/04 12:59:29;;;;;;;19.53;9.20;;;;;;;;;;5014913;28;20188;-79
2021/03/04 13:01:55;;;;;;;16.87;8.80;;;;;;;;;;5014605;28;20179;-79
2021/03/04 13:04:21;;;;;;;21.97;10.07;;;;;;;;;;5014735;28;20253;-78
2021/03/04 13:06:47;;;;;;;20.13;9.93;;;;;;;;;;5031426;28;20218;-78
2021/03/04 13:09:13;;;;;;;22.57;10.23;;;;;;;;;;5025057;28;20186;-80
2021/03/04 13:11:41;;;;;;;20.10;9.17;;;;;;;;;;5031542;28;20183;-81
2021/03/04 13:14:07;;;;;;;20.07;9.23;;;;;;;;;;5015351;28;20198;-77
2021/03/04 13:16:33;;;;;;;23.83;9.77;;;;;;;;;;5015166;28;20191;-78
2021/03/04 13:19:00;;;;;;;19.67;9.93;;;;;;;;;;5029156;28;20711;-78
2021/03/04 13:21:26;;;;;;;23.97;9.60;;;;;;;;;;5017734;28;20231;-77
2021/03/04 13:23:52;;;;;;;20.80;8.17;;;;;;;;;;5020784;28;20190;-75
2021/03/04 13:26:18;;;;;;;21.77;8.87;;;;;;;;;;5024602;28;20284;-75
2021/03/04 13:28:45;;;;;;;18.77;9.40;;;;;;;;;;5015727;28;20184;-76
2021/03/04 13:31:11;;;;;;;65.27;42.03;;;;;;;;;;5010468;28;20644;-77
2021/03/04 13:33:38;;;;;;;34.40;22.67;;;;;;;;;;5018458;28;20183;-77
2021/03/04 13:36:04;;;;;;;19.60;10.87;;;;;;;;;;5003139;28;20198;-77
2021/03/04 13:38:30;;;;;;;19.53;10.17;;;;;;;;;;5026277;28;20183;-78
2021/03/04 13:40:56;;;;;;;17.70;8.87;;;;;;;;;;5014621;28;20633;-72
2021/03/04 13:43:22;;;;;;;20.03;9.50;;;;;;;;;;5026074;28;20861;-71
2021/03/04 13:45:48;;;;;;;17.03;8.60;;;;;;;;;;5019959;28;20216;-71
2021/03/04 13:48:14;;;;;;;18.83;9.70;;;;;;;;;;5019033;28;20679;-71
2021/03/04 13:50:40;;;;;;;15.57;7.97;;;;;;;;;;5026689;28;20218;-71
2021/03/04 13:53:06;;;;;;;19.63;8.50;;;;;;;;;;5031683;28;20632;-71
2021/03/04 13:55:32;;;;;;;19.33;11.37;;;;;;;;;;5031824;28;20288;-71
2021/03/04 13:57:58;;;;;;;13.07;7.97;;;;;;;;;;5031661;28;20186;-71
2021/03/04 14:00:24;;;;;;;15.90;8.20;;;;;;;;;;5030782;28;20186;-71
2021/03/04 14:02:50;;;;;;;16.17;7.70;;;;;;;;;;5031611;28;20418;-71
2021/03/04 14:05:16;;;;;;;54.00;26.50;;;;;;;;;;5031443;28;20364;-71
2021/03/04 14:07:42;;;;;;;19.80;8.57;;;;;;;;;;5031790;28;20894;-71
2021/03/04 14:10:09;;;;;;;29.73;13.77;;;;;;;;;;5031428;28;20177;-71
2021/03/04 14:12:35;;;;;;;19.70;10.13;;;;;;;;;;5031419;28;20179;-71